sensor_id;sensor_type;location;lat;lon;timestamp;temperature;humidity
54576;DHT22;40472;53.486;14.542;2022-07-15T00:01:34;11.60;99.90
54576;DHT22;40472;53.486;14.542;2022-07-15T00:04:00;11.60;99.90
54576;DHT22;40472;53.486;14.542;2022-07-15T00:06:26;11.60;99.90
54576;DHT22;40472;53.486;14.542;2022-07-15T00:08:52;11.50;99.90
54576;DHT22;40472;53.486;14.542;2022-07-15T00:11:17;11.50;99.90
54576;DHT22;40472;53.486;14.542;2022-07-15T00:13:43;11.60;99.90
54576;DHT22;40472;53.486;14.542;2022-07-15T00:16:09;11.60;99.90
54576;DHT22;40472;53.486;14.542;2022-07-15T00:18:34;11.50;99.90
54576;DHT22;40472;53.486;14.542;2022-07-15T00:21:00;11.50;99.90
54576;DHT22;40472;53.486;14.542;2022-07-15T00:23:26;11.50;99.90
54576;DHT22;40472;53.486;14.542;2022-07-15T00:25:51;11.50;99.90
54576;DHT22;40472;53.486;14.542;2022-07-15T00:28:17;11.50;99.90
54576;DHT22;40472;53.486;14.542;2022-07-15T00:30:42;11.50;99.90
54576;DHT22;40472;53.486;14.542;2022-07-15T00:33:09;11.60;99.90
54576;DHT22;40472;53.486;14.542;2022-07-15T00:35:36;11.60;99.90
54576;DHT22;40472;53.486;14.542;2022-07-15T00:38:03;11.60;99.90
54576;DHT22;40472;53.486;14.542;2022-07-15T00:40:29;11.70;99.90
54576;DHT22;40472;53.486;14.542;2022-07-15T00:42:55;11.80;99.90
54576;DHT22;40472;53.486;14.542;2022-07-15T00:45:30;11.70;99.90
54576;DHT22;40472;53.486;14.542;2022-07-15T00:47:57;11.70;99.90
54576;DHT22;40472;53.486;14.542;2022-07-15T00:50:26;11.80;99.90
54576;DHT22;40472;53.486;14.542;2022-07-15T00:52:58;11.70;99.90
54576;DHT22;40472;53.486;14.542;2022-07-15T00:55:25;11.80;99.90
54576;DHT22;40472;53.486;14.542;2022-07-15T00:57:55;11.80;99.90
54576;DHT22;40472;53.486;14.542;2022-07-15T01:00:22;11.80;99.90
54576;DHT22;40472;53.486;14.542;2022-07-15T01:02:48;11.80;99.90
54576;DHT22;40472;53.486;14.542;2022-07-15T01:08:31;11.70;99.90
54576;DHT22;40472;53.486;14.542;2022-07-15T01:10:57;11.70;99.90
54576;DHT22;40472;53.486;14.542;2022-07-15T01:13:22;11.60;99.90
54576;DHT22;40472;53.486;14.542;2022-07-15T01:15:49;11.70;99.90
54576;DHT22;40472;53.486;14.542;2022-07-15T01:18:15;11.70;99.90
54576;DHT22;40472;53.486;14.542;2022-07-15T01:20:44;11.70;99.90
54576;DHT22;40472;53.486;14.542;2022-07-15T01:23:14;11.70;99.90
54576;DHT22;40472;53.486;14.542;2022-07-15T01:25:40;11.70;99.90
54576;DHT22;40472;53.486;14.542;2022-07-15T01:28:09;11.70;99.90
54576;DHT22;40472;53.486;14.542;2022-07-15T01:30:36;11.60;99.90
54576;DHT22;40472;53.486;14.542;2022-07-15T01:33:01;11.50;99.90
54576;DHT22;40472;53.486;14.542;2022-07-15T01:35:27;11.40;99.90
54576;DHT22;40472;53.486;14.542;2022-07-15T01:37:54;11.40;99.90
54576;DHT22;40472;53.486;14.542;2022-07-15T01:40:19;11.40;99.90
54576;DHT22;40472;53.486;14.542;2022-07-15T01:42:45;11.40;99.90
54576;DHT22;40472;53.486;14.542;2022-07-15T01:45:11;11.30;99.90
54576;DHT22;40472;53.486;14.542;2022-07-15T01:47:47;11.30;99.90
54576;DHT22;40472;53.486;14.542;2022-07-15T01:50:13;11.30;99.90
54576;DHT22;40472;53.486;14.542;2022-07-15T01:52:39;11.20;99.90
54576;DHT22;40472;53.486;14.542;2022-07-15T01:55:06;11.20;99.90
54576;DHT22;40472;53.486;14.542;2022-07-15T01:57:32;11.20;99.90
54576;DHT22;40472;53.486;14.542;2022-07-15T01:59:59;11.20;99.90
54576;DHT22;40472;53.486;14.542;2022-07-15T02:02:25;11.10;99.90
54576;DHT22;40472;53.486;14.542;2022-07-15T02:04:51;11.20;99.90
54576;DHT22;40472;53.486;14.542;2022-07-15T02:07:17;11.10;99.90
54576;DHT22;40472;53.486;14.542;2022-07-15T02:09:43;11.10;99.90
54576;DHT22;40472;53.486;14.542;2022-07-15T02:12:09;11.10;99.90
54576;DHT22;40472;53.486;14.542;2022-07-15T02:14:35;11.00;99.90
54576;DHT22;40472;53.486;14.542;2022-07-15T02:17:01;11.00;99.90
54576;DHT22;40472;53.486;14.542;2022-07-15T02:19:27;10.90;99.90
54576;DHT22;40472;53.486;14.542;2022-07-15T02:21:53;10.90;99.90
54576;DHT22;40472;53.486;14.542;2022-07-15T02:24:19;10.90;99.90
54576;DHT22;40472;53.486;14.542;2022-07-15T02:26:47;10.90;99.90
54576;DHT22;40472;53.486;14.542;2022-07-15T02:29:14;10.90;99.90
54576;DHT22;40472;53.486;14.542;2022-07-15T02:31:40;10.90;99.90
54576;DHT22;40472;53.486;14.542;2022-07-15T02:34:07;10.80;99.90
54576;DHT22;40472;53.486;14.542;2022-07-15T02:36:33;10.80;99.90
54576;DHT22;40472;53.486;14.542;2022-07-15T02:38:59;10.90;99.90
54576;DHT22;40472;53.486;14.542;2022-07-15T02:41:24;11.00;99.90
54576;DHT22;40472;53.486;14.542;2022-07-15T02:43:51;11.00;99.90
54576;DHT22;40472;53.486;14.542;2022-07-15T02:46:17;11.10;99.90
54576;DHT22;40472;53.486;14.542;2022-07-15T02:48:43;11.20;99.90
54576;DHT22;40472;53.486;14.542;2022-07-15T02:51:09;11.20;99.90
54576;DHT22;40472;53.486;14.542;2022-07-15T02:53:35;11.20;99.90
54576;DHT22;40472;53.486;14.542;2022-07-15T02:56:01;11.20;99.90
54576;DHT22;40472;53.486;14.542;2022-07-15T02:58:30;11.30;99.90
54576;DHT22;40472;53.486;14.542;2022-07-15T03:00:57;11.30;99.90
54576;DHT22;40472;53.486;14.542;2022-07-15T03:03:23;11.30;99.90
54576;DHT22;40472;53.486;14.542;2022-07-15T03:05:49;11.30;99.90
54576;DHT22;40472;53.486;14.542;2022-07-15T03:08:16;11.30;99.90
54576;DHT22;40472;53.486;14.542;2022-07-15T03:10:43;11.30;99.90
54576;DHT22;40472;53.486;14.542;2022-07-15T03:13:09;11.30;99.90
54576;DHT22;40472;53.486;14.542;2022-07-15T03:15:34;11.40;99.90
54576;DHT22;40472;53.486;14.542;2022-07-15T03:18:00;11.50;99.90
54576;DHT22;40472;53.486;14.542;2022-07-15T03:20:26;11.50;99.90
54576;DHT22;40472;53.486;14.542;2022-07-15T03:22:52;11.60;99.90
54576;DHT22;40472;53.486;14.542;2022-07-15T03:25:18;11.60;99.90
54576;DHT22;40472;53.486;14.542;2022-07-15T03:27:44;11.60;99.90
54576;DHT22;40472;53.486;14.542;2022-07-15T03:30:10;11.60;99.90
54576;DHT22;40472;53.486;14.542;2022-07-15T03:32:35;11.50;99.90
54576;DHT22;40472;53.486;14.542;2022-07-15T03:35:01;11.50;99.90
54576;DHT22;40472;53.486;14.542;2022-07-15T03:37:27;11.50;99.90
54576;DHT22;40472;53.486;14.542;2022-07-15T03:39:53;11.50;99.90
54576;DHT22;40472;53.486;14.542;2022-07-15T03:42:18;11.40;99.90
54576;DHT22;40472;53.486;14.542;2022-07-15T03:44:44;11.40;99.90
54576;DHT22;40472;53.486;14.542;2022-07-15T03:47:10;11.40;99.90
54576;DHT22;40472;53.486;14.542;2022-07-15T03:49:36;11.50;99.90
54576;DHT22;40472;53.486;14.542;2022-07-15T03:52:01;11.60;99.90
54576;DHT22;40472;53.486;14.542;2022-07-15T03:54:27;11.70;99.90
54576;DHT22;40472;53.486;14.542;2022-07-15T03:56:53;11.80;99.90
54576;DHT22;40472;53.486;14.542;2022-07-15T03:59:20;11.90;99.90
54576;DHT22;40472;53.486;14.542;2022-07-15T04:01:47;12.00;99.90
54576;DHT22;40472;53.486;14.542;2022-07-15T04:04:14;12.00;99.90
54576;DHT22;40472;53.486;14.542;2022-07-15T04:06:40;12.00;99.90
54576;DHT22;40472;53.486;14.542;2022-07-15T04:09:06;12.00;99.90
54576;DHT22;40472;53.486;14.542;2022-07-15T04:11:33;12.10;99.90
54576;DHT22;40472;53.486;14.542;2022-07-15T04:13:59;12.10;99.90
54576;DHT22;40472;53.486;14.542;2022-07-15T04:16:25;12.20;99.90
54576;DHT22;40472;53.486;14.542;2022-07-15T04:18:51;12.10;99.90
54576;DHT22;40472;53.486;14.542;2022-07-15T04:21:17;12.20;99.90
54576;DHT22;40472;53.486;14.542;2022-07-15T04:23:43;12.30;99.90
54576;DHT22;40472;53.486;14.542;2022-07-15T04:26:09;12.30;99.90
54576;DHT22;40472;53.486;14.542;2022-07-15T04:28:36;12.20;99.90
54576;DHT22;40472;53.486;14.542;2022-07-15T04:31:02;12.30;99.90
54576;DHT22;40472;53.486;14.542;2022-07-15T04:33:27;12.30;99.90
54576;DHT22;40472;53.486;14.542;2022-07-15T04:35:53;12.30;99.90
54576;DHT22;40472;53.486;14.542;2022-07-15T04:38:20;12.20;99.90
54576;DHT22;40472;53.486;14.542;2022-07-15T04:40:46;12.20;99.90
54576;DHT22;40472;53.486;14.542;2022-07-15T04:43:12;12.20;99.90
54576;DHT22;40472;53.486;14.542;2022-07-15T04:45:38;12.20;99.90
54576;DHT22;40472;53.486;14.542;2022-07-15T04:48:04;12.40;99.90
54576;DHT22;40472;53.486;14.542;2022-07-15T04:50:53;12.40;99.90
54576;DHT22;40472;53.486;14.542;2022-07-15T04:53:21;12.50;99.90
54576;DHT22;40472;53.486;14.542;2022-07-15T04:55:47;12.50;99.90
54576;DHT22;40472;53.486;14.542;2022-07-15T04:58:13;12.70;99.90
54576;DHT22;40472;53.486;14.542;2022-07-15T05:00:45;12.80;99.90
54576;DHT22;40472;53.486;14.542;2022-07-15T05:03:11;12.90;99.90
54576;DHT22;40472;53.486;14.542;2022-07-15T05:09:02;12.80;99.90
54576;DHT22;40472;53.486;14.542;2022-07-15T05:11:27;13.10;99.90
54576;DHT22;40472;53.486;14.542;2022-07-15T05:13:53;12.80;99.90
54576;DHT22;40472;53.486;14.542;2022-07-15T05:16:19;12.80;99.90
54576;DHT22;40472;53.486;14.542;2022-07-15T05:18:45;12.90;99.90
54576;DHT22;40472;53.486;14.542;2022-07-15T05:21:12;12.80;99.90
54576;DHT22;40472;53.486;14.542;2022-07-15T05:23:38;12.80;99.90
54576;DHT22;40472;53.486;14.542;2022-07-15T05:26:05;12.80;99.90
54576;DHT22;40472;53.486;14.542;2022-07-15T05:28:31;12.80;99.90
54576;DHT22;40472;53.486;14.542;2022-07-15T05:30:57;13.00;99.90
54576;DHT22;40472;53.486;14.542;2022-07-15T05:33:23;13.00;99.90
54576;DHT22;40472;53.486;14.542;2022-07-15T05:35:49;13.20;99.90
54576;DHT22;40472;53.486;14.542;2022-07-15T05:38:14;13.40;99.90
54576;DHT22;40472;53.486;14.542;2022-07-15T05:40:40;13.60;99.90
54576;DHT22;40472;53.486;14.542;2022-07-15T05:43:06;13.80;99.90
54576;DHT22;40472;53.486;14.542;2022-07-15T05:45:31;13.80;99.90
54576;DHT22;40472;53.486;14.542;2022-07-15T05:47:57;13.80;99.90
54576;DHT22;40472;53.486;14.542;2022-07-15T05:50:23;13.60;99.90
54576;DHT22;40472;53.486;14.542;2022-07-15T05:52:48;13.30;99.90
54576;DHT22;40472;53.486;14.542;2022-07-15T05:55:14;13.30;99.90
54576;DHT22;40472;53.486;14.542;2022-07-15T05:57:40;13.40;99.90
54576;DHT22;40472;53.486;14.542;2022-07-15T06:00:06;13.60;99.90
54576;DHT22;40472;53.486;14.542;2022-07-15T06:02:34;13.60;99.90
54576;DHT22;40472;53.486;14.542;2022-07-15T06:05:00;13.60;99.90
54576;DHT22;40472;53.486;14.542;2022-07-15T06:07:26;13.80;99.90
54576;DHT22;40472;53.486;14.542;2022-07-15T06:09:52;13.70;99.90
54576;DHT22;40472;53.486;14.542;2022-07-15T06:12:17;13.60;99.90
54576;DHT22;40472;53.486;14.542;2022-07-15T06:14:44;13.70;99.90
54576;DHT22;40472;53.486;14.542;2022-07-15T06:17:10;13.50;99.90
54576;DHT22;40472;53.486;14.542;2022-07-15T06:19:36;13.60;99.90
54576;DHT22;40472;53.486;14.542;2022-07-15T06:22:01;13.70;99.90
54576;DHT22;40472;53.486;14.542;2022-07-15T06:24:27;13.60;99.90
54576;DHT22;40472;53.486;14.542;2022-07-15T06:26:54;13.50;99.90
54576;DHT22;40472;53.486;14.542;2022-07-15T06:29:20;13.50;99.90
54576;DHT22;40472;53.486;14.542;2022-07-15T06:31:46;13.70;99.90
54576;DHT22;40472;53.486;14.542;2022-07-15T06:34:13;14.00;99.90
54576;DHT22;40472;53.486;14.542;2022-07-15T06:36:38;14.10;99.90
54576;DHT22;40472;53.486;14.542;2022-07-15T06:39:04;14.50;99.90
54576;DHT22;40472;53.486;14.542;2022-07-15T06:41:30;14.40;99.90
54576;DHT22;40472;53.486;14.542;2022-07-15T06:43:57;14.10;99.90
54576;DHT22;40472;53.486;14.542;2022-07-15T06:46:23;14.10;99.90
54576;DHT22;40472;53.486;14.542;2022-07-15T06:48:49;14.30;99.90
54576;DHT22;40472;53.486;14.542;2022-07-15T06:51:14;14.40;99.90
54576;DHT22;40472;53.486;14.542;2022-07-15T06:53:40;14.50;99.90
54576;DHT22;40472;53.486;14.542;2022-07-15T06:56:06;14.60;99.90
54576;DHT22;40472;53.486;14.542;2022-07-15T06:58:32;14.80;99.90
54576;DHT22;40472;53.486;14.542;2022-07-15T07:00:58;14.60;99.90
54576;DHT22;40472;53.486;14.542;2022-07-15T07:03:26;14.60;99.90
54576;DHT22;40472;53.486;14.542;2022-07-15T07:05:51;14.50;99.90
54576;DHT22;40472;53.486;14.542;2022-07-15T07:08:17;14.60;99.90
54576;DHT22;40472;53.486;14.542;2022-07-15T07:10:43;14.70;99.90
54576;DHT22;40472;53.486;14.542;2022-07-15T07:13:09;14.60;99.90
54576;DHT22;40472;53.486;14.542;2022-07-15T07:15:35;14.70;99.90
54576;DHT22;40472;53.486;14.542;2022-07-15T07:18:01;14.70;99.90
54576;DHT22;40472;53.486;14.542;2022-07-15T07:20:28;14.50;99.90
54576;DHT22;40472;53.486;14.542;2022-07-15T07:22:53;14.60;99.90
54576;DHT22;40472;53.486;14.542;2022-07-15T07:25:19;14.70;99.90
54576;DHT22;40472;53.486;14.542;2022-07-15T07:27:45;14.40;99.90
54576;DHT22;40472;53.486;14.542;2022-07-15T07:30:11;14.50;99.90
54576;DHT22;40472;53.486;14.542;2022-07-15T07:32:38;14.40;99.90
54576;DHT22;40472;53.486;14.542;2022-07-15T07:35:04;14.60;99.90
54576;DHT22;40472;53.486;14.542;2022-07-15T07:37:36;14.70;99.90
54576;DHT22;40472;53.486;14.542;2022-07-15T07:40:04;14.90;99.90
54576;DHT22;40472;53.486;14.542;2022-07-15T07:42:30;15.10;99.90
54576;DHT22;40472;53.486;14.542;2022-07-15T07:44:56;15.20;99.90
54576;DHT22;40472;53.486;14.542;2022-07-15T07:47:21;15.20;99.90
54576;DHT22;40472;53.486;14.542;2022-07-15T07:49:48;15.40;99.90
54576;DHT22;40472;53.486;14.542;2022-07-15T07:52:14;15.50;99.90
54576;DHT22;40472;53.486;14.542;2022-07-15T07:54:42;15.80;99.90
54576;DHT22;40472;53.486;14.542;2022-07-15T07:57:10;15.90;99.90
54576;DHT22;40472;53.486;14.542;2022-07-15T07:59:35;15.80;99.90
54576;DHT22;40472;53.486;14.542;2022-07-15T08:02:02;15.50;99.90
54576;DHT22;40472;53.486;14.542;2022-07-15T08:04:30;15.40;99.90
54576;DHT22;40472;53.486;14.542;2022-07-15T08:06:57;15.20;99.90
54576;DHT22;40472;53.486;14.542;2022-07-15T08:09:22;15.30;99.90
54576;DHT22;40472;53.486;14.542;2022-07-15T08:11:48;15.40;99.90
54576;DHT22;40472;53.486;14.542;2022-07-15T08:14:14;15.40;99.90
54576;DHT22;40472;53.486;14.542;2022-07-15T08:16:40;15.50;99.90
54576;DHT22;40472;53.486;14.542;2022-07-15T08:19:09;15.50;99.90
54576;DHT22;40472;53.486;14.542;2022-07-15T08:21:38;15.80;99.90
54576;DHT22;40472;53.486;14.542;2022-07-15T08:24:04;16.10;99.90
54576;DHT22;40472;53.486;14.542;2022-07-15T08:26:30;16.30;99.90
54576;DHT22;40472;53.486;14.542;2022-07-15T08:28:56;15.60;99.90
54576;DHT22;40472;53.486;14.542;2022-07-15T08:31:22;15.50;99.90
54576;DHT22;40472;53.486;14.542;2022-07-15T08:33:48;15.20;99.90
54576;DHT22;40472;53.486;14.542;2022-07-15T08:36:14;15.10;99.90
54576;DHT22;40472;53.486;14.542;2022-07-15T08:38:40;15.30;99.90
54576;DHT22;40472;53.486;14.542;2022-07-15T08:41:06;15.50;99.90
54576;DHT22;40472;53.486;14.542;2022-07-15T08:43:32;15.90;99.90
54576;DHT22;40472;53.486;14.542;2022-07-15T08:45:58;15.90;99.90
54576;DHT22;40472;53.486;14.542;2022-07-15T08:48:27;15.90;99.90
54576;DHT22;40472;53.486;14.542;2022-07-15T08:50:55;15.80;99.90
54576;DHT22;40472;53.486;14.542;2022-07-15T08:53:21;15.50;99.90
54576;DHT22;40472;53.486;14.542;2022-07-15T08:55:47;15.50;99.90
54576;DHT22;40472;53.486;14.542;2022-07-15T08:58:13;15.40;99.90
54576;DHT22;40472;53.486;14.542;2022-07-15T09:00:39;15.50;99.90
54576;DHT22;40472;53.486;14.542;2022-07-15T09:03:05;15.70;99.90
54576;DHT22;40472;53.486;14.542;2022-07-15T09:05:33;15.80;99.90
54576;DHT22;40472;53.486;14.542;2022-07-15T09:08:15;15.80;99.90
54576;DHT22;40472;53.486;14.542;2022-07-15T09:10:50;16.20;99.90
54576;DHT22;40472;53.486;14.542;2022-07-15T09:13:39;16.40;99.90
54576;DHT22;40472;53.486;14.542;2022-07-15T09:16:10;16.40;99.90
54576;DHT22;40472;53.486;14.542;2022-07-15T09:18:38;16.40;99.90
54576;DHT22;40472;53.486;14.542;2022-07-15T09:21:19;16.40;99.90
54576;DHT22;40472;53.486;14.542;2022-07-15T09:23:46;16.60;99.90
54576;DHT22;40472;53.486;14.542;2022-07-15T09:26:24;16.70;99.90
54576;DHT22;40472;53.486;14.542;2022-07-15T09:28:50;16.40;99.90
54576;DHT22;40472;53.486;14.542;2022-07-15T09:31:36;16.40;99.90
54576;DHT22;40472;53.486;14.542;2022-07-15T09:34:21;16.70;99.90
54576;DHT22;40472;53.486;14.542;2022-07-15T09:36:49;16.60;99.90
54576;DHT22;40472;53.486;14.542;2022-07-15T09:39:21;16.60;99.90
54576;DHT22;40472;53.486;14.542;2022-07-15T09:41:48;16.70;99.90
54576;DHT22;40472;53.486;14.542;2022-07-15T09:44:19;16.90;99.90
54576;DHT22;40472;53.486;14.542;2022-07-15T09:46:57;16.90;99.90
54576;DHT22;40472;53.486;14.542;2022-07-15T09:52:03;16.90;99.90
54576;DHT22;40472;53.486;14.542;2022-07-15T09:54:46;16.60;99.90
54576;DHT22;40472;53.486;14.542;2022-07-15T09:57:17;16.30;99.90
54576;DHT22;40472;53.486;14.542;2022-07-15T09:59:48;16.40;99.90
54576;DHT22;40472;53.486;14.542;2022-07-15T10:02:14;16.70;99.90
54576;DHT22;40472;53.486;14.542;2022-07-15T10:04:41;17.10;99.90
54576;DHT22;40472;53.486;14.542;2022-07-15T10:07:11;17.40;99.90
54576;DHT22;40472;53.486;14.542;2022-07-15T10:09:37;17.40;99.90
54576;DHT22;40472;53.486;14.542;2022-07-15T10:12:10;17.20;99.90
54576;DHT22;40472;53.486;14.542;2022-07-15T10:27:09;17.40;99.90
54576;DHT22;40472;53.486;14.542;2022-07-15T10:29:38;17.50;99.90
54576;DHT22;40472;53.486;14.542;2022-07-15T10:32:04;17.50;99.90
54576;DHT22;40472;53.486;14.542;2022-07-15T10:34:34;17.40;99.90
54576;DHT22;40472;53.486;14.542;2022-07-15T10:37:03;17.50;99.90
54576;DHT22;40472;53.486;14.542;2022-07-15T10:39:48;17.70;99.90
54576;DHT22;40472;53.486;14.542;2022-07-15T10:42:15;18.10;99.90
54576;DHT22;40472;53.486;14.542;2022-07-15T10:47:26;18.20;99.90
54576;DHT22;40472;53.486;14.542;2022-07-15T10:49:52;18.60;99.90
54576;DHT22;40472;53.486;14.542;2022-07-15T10:52:23;18.70;99.90
54576;DHT22;40472;53.486;14.542;2022-07-15T10:57:17;18.20;98.90
54576;DHT22;40472;53.486;14.542;2022-07-15T10:59:55;17.90;98.80
54576;DHT22;40472;53.486;14.542;2022-07-15T11:02:24;17.90;99.70
54576;DHT22;40472;53.486;14.542;2022-07-15T11:04:51;18.10;99.50
54576;DHT22;40472;53.486;14.542;2022-07-15T11:09:55;18.20;97.20
54576;DHT22;40472;53.486;14.542;2022-07-15T11:15:18;18.40;95.60
54576;DHT22;40472;53.486;14.542;2022-07-15T11:17:46;18.40;95.80
54576;DHT22;40472;53.486;14.542;2022-07-15T11:22:43;18.00;97.30
54576;DHT22;40472;53.486;14.542;2022-07-15T11:25:27;18.00;97.70
54576;DHT22;40472;53.486;14.542;2022-07-15T11:28:01;18.00;98.10
54576;DHT22;40472;53.486;14.542;2022-07-15T11:33:07;17.90;97.80
54576;DHT22;40472;53.486;14.542;2022-07-15T11:35:54;17.90;96.90
54576;DHT22;40472;53.486;14.542;2022-07-15T11:38:22;18.10;96.40
54576;DHT22;40472;53.486;14.542;2022-07-15T11:40:54;18.50;96.00
54576;DHT22;40472;53.486;14.542;2022-07-15T11:43:39;18.60;96.00
54576;DHT22;40472;53.486;14.542;2022-07-15T11:46:25;18.70;95.40
54576;DHT22;40472;53.486;14.542;2022-07-15T11:48:52;18.50;95.70
54576;DHT22;40472;53.486;14.542;2022-07-15T11:51:27;18.70;96.40
54576;DHT22;40472;53.486;14.542;2022-07-15T11:53:54;18.80;96.80
54576;DHT22;40472;53.486;14.542;2022-07-15T11:56:20;19.00;96.10
54576;DHT22;40472;53.486;14.542;2022-07-15T11:58:51;18.60;95.50
54576;DHT22;40472;53.486;14.542;2022-07-15T12:01:20;18.30;95.70
54576;DHT22;40472;53.486;14.542;2022-07-15T12:03:50;18.60;97.10
54576;DHT22;40472;53.486;14.542;2022-07-15T12:06:28;18.40;97.50
54576;DHT22;40472;53.486;14.542;2022-07-15T12:08:56;18.30;97.40
54576;DHT22;40472;53.486;14.542;2022-07-15T12:11:25;18.30;97.50
54576;DHT22;40472;53.486;14.542;2022-07-15T12:13:58;18.50;97.50
54576;DHT22;40472;53.486;14.542;2022-07-15T12:19:04;19.10;94.60
54576;DHT22;40472;53.486;14.542;2022-07-15T12:21:30;19.20;94.20
54576;DHT22;40472;53.486;14.542;2022-07-15T12:24:11;19.00;93.70
54576;DHT22;40472;53.486;14.542;2022-07-15T12:26:42;18.90;94.30
54576;DHT22;40472;53.486;14.542;2022-07-15T12:29:11;19.00;94.60
54576;DHT22;40472;53.486;14.542;2022-07-15T12:31:39;18.90;95.20
54576;DHT22;40472;53.486;14.542;2022-07-15T12:34:05;19.10;94.90
54576;DHT22;40472;53.486;14.542;2022-07-15T12:36:33;18.90;95.70
54576;DHT22;40472;53.486;14.542;2022-07-15T12:39:11;18.90;95.30
54576;DHT22;40472;53.486;14.542;2022-07-15T12:41:40;19.20;94.60
54576;DHT22;40472;53.486;14.542;2022-07-15T12:44:07;19.20;93.90
54576;DHT22;40472;53.486;14.542;2022-07-15T12:46:52;19.50;93.20
54576;DHT22;40472;53.486;14.542;2022-07-15T12:49:41;19.50;93.20
54576;DHT22;40472;53.486;14.542;2022-07-15T12:52:20;19.10;93.90
54576;DHT22;40472;53.486;14.542;2022-07-15T12:54:46;18.70;94.50
54576;DHT22;40472;53.486;14.542;2022-07-15T12:57:43;18.70;94.90
54576;DHT22;40472;53.486;14.542;2022-07-15T13:02:58;19.00;94.80
54576;DHT22;40472;53.486;14.542;2022-07-15T13:05:25;19.30;92.70
54576;DHT22;40472;53.486;14.542;2022-07-15T13:07:51;19.40;92.50
54576;DHT22;40472;53.486;14.542;2022-07-15T13:10:17;19.50;92.90
54576;DHT22;40472;53.486;14.542;2022-07-15T13:12:43;19.50;90.60
54576;DHT22;40472;53.486;14.542;2022-07-15T13:15:10;19.20;91.10
54576;DHT22;40472;53.486;14.542;2022-07-15T13:17:35;19.20;91.10
54576;DHT22;40472;53.486;14.542;2022-07-15T13:20:02;18.90;91.30
54576;DHT22;40472;53.486;14.542;2022-07-15T13:22:31;18.70;92.00
54576;DHT22;40472;53.486;14.542;2022-07-15T13:24:57;19.10;93.00
54576;DHT22;40472;53.486;14.542;2022-07-15T13:27:23;19.30;92.20
54576;DHT22;40472;53.486;14.542;2022-07-15T13:29:49;19.20;92.20
54576;DHT22;40472;53.486;14.542;2022-07-15T13:32:15;19.30;93.10
54576;DHT22;40472;53.486;14.542;2022-07-15T13:34:41;19.20;91.90
54576;DHT22;40472;53.486;14.542;2022-07-15T13:37:07;19.20;91.80
54576;DHT22;40472;53.486;14.542;2022-07-15T13:39:33;19.00;91.20
54576;DHT22;40472;53.486;14.542;2022-07-15T13:42:01;19.10;91.50
54576;DHT22;40472;53.486;14.542;2022-07-15T13:44:26;19.10;91.10
54576;DHT22;40472;53.486;14.542;2022-07-15T13:46:52;19.00;91.20
54576;DHT22;40472;53.486;14.542;2022-07-15T13:49:18;18.70;90.90
54576;DHT22;40472;53.486;14.542;2022-07-15T13:51:44;18.80;91.20
54576;DHT22;40472;53.486;14.542;2022-07-15T13:54:10;18.90;91.40
54576;DHT22;40472;53.486;14.542;2022-07-15T13:56:36;19.30;89.10
54576;DHT22;40472;53.486;14.542;2022-07-15T13:59:02;19.40;90.60
54576;DHT22;40472;53.486;14.542;2022-07-15T14:01:29;19.40;89.90
54576;DHT22;40472;53.486;14.542;2022-07-15T14:03:58;19.30;90.50
54576;DHT22;40472;53.486;14.542;2022-07-15T14:06:24;19.30;90.70
54576;DHT22;40472;53.486;14.542;2022-07-15T14:08:50;19.50;90.10
54576;DHT22;40472;53.486;14.542;2022-07-15T14:11:16;19.50;90.60
54576;DHT22;40472;53.486;14.542;2022-07-15T14:13:43;19.80;89.70
54576;DHT22;40472;53.486;14.542;2022-07-15T14:16:09;19.70;85.60
54576;DHT22;40472;53.486;14.542;2022-07-15T14:18:34;19.90;86.00
54576;DHT22;40472;53.486;14.542;2022-07-15T14:21:11;19.60;84.80
54576;DHT22;40472;53.486;14.542;2022-07-15T14:23:37;19.30;84.50
54576;DHT22;40472;53.486;14.542;2022-07-15T14:26:03;19.30;83.10
54576;DHT22;40472;53.486;14.542;2022-07-15T14:28:29;19.40;83.60
54576;DHT22;40472;53.486;14.542;2022-07-15T14:30:55;19.20;84.60
54576;DHT22;40472;53.486;14.542;2022-07-15T14:33:20;19.20;85.00
54576;DHT22;40472;53.486;14.542;2022-07-15T14:35:46;19.10;85.80
54576;DHT22;40472;53.486;14.542;2022-07-15T14:38:12;19.10;85.30
54576;DHT22;40472;53.486;14.542;2022-07-15T14:40:37;18.90;85.20
54576;DHT22;40472;53.486;14.542;2022-07-15T14:43:03;19.10;85.70
54576;DHT22;40472;53.486;14.542;2022-07-15T14:45:29;19.30;85.40
54576;DHT22;40472;53.486;14.542;2022-07-15T14:47:55;19.60;84.80
54576;DHT22;40472;53.486;14.542;2022-07-15T14:50:21;19.50;82.80
54576;DHT22;40472;53.486;14.542;2022-07-15T14:52:47;19.20;83.60
54576;DHT22;40472;53.486;14.542;2022-07-15T14:55:13;19.30;83.50
54576;DHT22;40472;53.486;14.542;2022-07-15T14:57:38;19.10;85.10
54576;DHT22;40472;53.486;14.542;2022-07-15T15:00:05;18.90;83.40
54576;DHT22;40472;53.486;14.542;2022-07-15T15:02:31;18.70;84.30
54576;DHT22;40472;53.486;14.542;2022-07-15T15:04:57;18.90;84.30
54576;DHT22;40472;53.486;14.542;2022-07-15T15:07:23;19.20;83.60
54576;DHT22;40472;53.486;14.542;2022-07-15T15:09:48;19.30;82.40
54576;DHT22;40472;53.486;14.542;2022-07-15T15:12:15;19.10;81.70
54576;DHT22;40472;53.486;14.542;2022-07-15T15:14:41;19.10;81.80
54576;DHT22;40472;53.486;14.542;2022-07-15T15:17:07;18.90;82.60
54576;DHT22;40472;53.486;14.542;2022-07-15T15:19:33;18.90;83.10
54576;DHT22;40472;53.486;14.542;2022-07-15T15:21:59;18.90;83.00
54576;DHT22;40472;53.486;14.542;2022-07-15T15:24:25;18.90;84.00
54576;DHT22;40472;53.486;14.542;2022-07-15T15:26:51;19.00;83.80
54576;DHT22;40472;53.486;14.542;2022-07-15T15:29:18;18.90;84.40
54576;DHT22;40472;53.486;14.542;2022-07-15T15:31:44;18.90;84.60
54576;DHT22;40472;53.486;14.542;2022-07-15T15:34:10;18.90;85.30
54576;DHT22;40472;53.486;14.542;2022-07-15T15:36:36;19.10;84.50
54576;DHT22;40472;53.486;14.542;2022-07-15T15:39:03;19.20;86.30
54576;DHT22;40472;53.486;14.542;2022-07-15T15:41:28;19.30;84.30
54576;DHT22;40472;53.486;14.542;2022-07-15T15:43:54;18.90;85.40
54576;DHT22;40472;53.486;14.542;2022-07-15T15:46:20;18.90;85.90
54576;DHT22;40472;53.486;14.542;2022-07-15T15:48:46;18.80;83.10
54576;DHT22;40472;53.486;14.542;2022-07-15T15:51:12;19.20;84.60
54576;DHT22;40472;53.486;14.542;2022-07-15T15:53:37;19.40;84.50
54576;DHT22;40472;53.486;14.542;2022-07-15T15:56:04;19.30;83.30
54576;DHT22;40472;53.486;14.542;2022-07-15T15:58:30;19.10;84.30
54576;DHT22;40472;53.486;14.542;2022-07-15T16:00:57;19.10;84.20